sensor_id;sensor_type;location;lat;lon;timestamp;temperature;humidity
19000;DHT22;9633;50.980;13.850;2023-12-29T00:01:31;1.00;99.90
19000;DHT22;9633;50.980;13.850;2023-12-29T00:03:05;1.00;99.90
19000;DHT22;9633;50.980;13.850;2023-12-29T00:04:38;0.90;99.90
19000;DHT22;9633;50.980;13.850;2023-12-29T00:06:10;0.90;99.90
19000;DHT22;9633;50.980;13.850;2023-12-29T00:07:44;0.90;99.90
19000;DHT22;9633;50.980;13.850;2023-12-29T00:09:16;1.10;99.90
19000;DHT22;9633;50.980;13.850;2023-12-29T00:10:51;1.10;99.90
19000;DHT22;9633;50.980;13.850;2023-12-29T00:12:23;1.20;99.90
19000;DHT22;9633;50.980;13.850;2023-12-29T00:13:56;1.30;99.90
19000;DHT22;9633;50.980;13.850;2023-12-29T00:15:29;1.40;99.90
19000;DHT22;9633;50.980;13.850;2023-12-29T00:17:04;1.40;99.90
19000;DHT22;9633;50.980;13.850;2023-12-29T00:18:37;1.40;99.90
19000;DHT22;9633;50.980;13.850;2023-12-29T00:20:10;1.50;99.90
19000;DHT22;9633;50.980;13.850;2023-12-29T00:21:52;1.50;99.90
19000;DHT22;9633;50.980;13.850;2023-12-29T00:23:24;1.50;99.90
19000;DHT22;9633;50.980;13.850;2023-12-29T00:24:57;1.50;99.90
19000;DHT22;9633;50.980;13.850;2023-12-29T00:26:30;1.60;99.90
19000;DHT22;9633;50.980;13.850;2023-12-29T00:28:04;1.70;99.90
19000;DHT22;9633;50.980;13.850;2023-12-29T00:29:38;1.50;99.90
19000;DHT22;9633;50.980;13.850;2023-12-29T00:31:14;1.50;99.90
19000;DHT22;9633;50.980;13.850;2023-12-29T00:32:49;1.50;99.90
19000;DHT22;9633;50.980;13.850;2023-12-29T00:34:22;1.30;99.90
19000;DHT22;9633;50.980;13.850;2023-12-29T00:35:55;1.20;99.90
19000;DHT22;9633;50.980;13.850;2023-12-29T00:37:27;1.20;99.90
19000;DHT22;9633;50.980;13.850;2023-12-29T00:39:00;1.10;99.90
19000;DHT22;9633;50.980;13.850;2023-12-29T00:40:33;1.20;99.90
19000;DHT22;9633;50.980;13.850;2023-12-29T00:42:06;1.20;99.90
19000;DHT22;9633;50.980;13.850;2023-12-29T00:43:39;1.20;99.90
19000;DHT22;9633;50.980;13.850;2023-12-29T00:45:12;1.40;99.90
19000;DHT22;9633;50.980;13.850;2023-12-29T00:46:44;1.60;99.90
19000;DHT22;9633;50.980;13.850;2023-12-29T00:48:19;1.50;99.90
19000;DHT22;9633;50.980;13.850;2023-12-29T00:49:51;1.40;99.90
19000;DHT22;9633;50.980;13.850;2023-12-29T00:51:25;1.30;99.90
19000;DHT22;9633;50.980;13.850;2023-12-29T00:52:57;1.20;99.90
19000;DHT22;9633;50.980;13.850;2023-12-29T00:54:30;1.10;99.90
19000;DHT22;9633;50.980;13.850;2023-12-29T00:56:09;0.90;99.90
19000;DHT22;9633;50.980;13.850;2023-12-29T00:57:42;0.80;99.90
19000;DHT22;9633;50.980;13.850;2023-12-29T00:59:18;0.80;99.90
19000;DHT22;9633;50.980;13.850;2023-12-29T01:00:50;0.80;99.90
19000;DHT22;9633;50.980;13.850;2023-12-29T01:02:25;0.80;99.90
19000;DHT22;9633;50.980;13.850;2023-12-29T01:03:59;1.00;99.90
19000;DHT22;9633;50.980;13.850;2023-12-29T01:05:32;1.10;99.90
19000;DHT22;9633;50.980;13.850;2023-12-29T01:07:04;1.20;99.90
19000;DHT22;9633;50.980;13.850;2023-12-29T01:08:38;1.10;99.90
19000;DHT22;9633;50.980;13.850;2023-12-29T01:10:10;1.10;99.90
19000;DHT22;9633;50.980;13.850;2023-12-29T01:11:43;1.10;99.90
19000;DHT22;9633;50.980;13.850;2023-12-29T01:13:17;1.00;99.90
19000;DHT22;9633;50.980;13.850;2023-12-29T01:14:49;1.00;99.90
19000;DHT22;9633;50.980;13.850;2023-12-29T01:16:23;1.20;99.90
19000;DHT22;9633;50.980;13.850;2023-12-29T01:17:55;1.10;99.90
19000;DHT22;9633;50.980;13.850;2023-12-29T01:19:30;1.20;99.90
19000;DHT22;9633;50.980;13.850;2023-12-29T01:21:03;1.20;99.90
19000;DHT22;9633;50.980;13.850;2023-12-29T01:22:36;1.10;99.90
19000;DHT22;9633;50.980;13.850;2023-12-29T01:24:08;1.00;99.90
19000;DHT22;9633;50.980;13.850;2023-12-29T01:25:43;1.00;99.90
19000;DHT22;9633;50.980;13.850;2023-12-29T01:27:16;0.90;99.90
19000;DHT22;9633;50.980;13.850;2023-12-29T01:28:49;0.90;99.90
19000;DHT22;9633;50.980;13.850;2023-12-29T01:30:23;0.80;99.90
19000;DHT22;9633;50.980;13.850;2023-12-29T01:31:55;0.80;99.90
19000;DHT22;9633;50.980;13.850;2023-12-29T01:33:29;0.80;99.90
19000;DHT22;9633;50.980;13.850;2023-12-29T01:35:03;0.70;99.90
19000;DHT22;9633;50.980;13.850;2023-12-29T01:36:36;0.80;99.90
19000;DHT22;9633;50.980;13.850;2023-12-29T01:38:10;0.80;99.90
19000;DHT22;9633;50.980;13.850;2023-12-29T01:39:42;0.80;99.90
19000;DHT22;9633;50.980;13.850;2023-12-29T01:41:15;0.80;99.90
19000;DHT22;9633;50.980;13.850;2023-12-29T01:42:48;0.70;99.90
19000;DHT22;9633;50.980;13.850;2023-12-29T01:44:22;0.70;99.90
19000;DHT22;9633;50.980;13.850;2023-12-29T01:45:55;0.70;99.90
19000;DHT22;9633;50.980;13.850;2023-12-29T01:47:29;0.80;99.90
19000;DHT22;9633;50.980;13.850;2023-12-29T01:49:03;0.80;99.90
19000;DHT22;9633;50.980;13.850;2023-12-29T01:50:39;0.80;99.90
19000;DHT22;9633;50.980;13.850;2023-12-29T01:52:14;1.00;99.90
19000;DHT22;9633;50.980;13.850;2023-12-29T01:53:46;1.10;99.90
19000;DHT22;9633;50.980;13.850;2023-12-29T01:55:20;1.10;99.90
19000;DHT22;9633;50.980;13.850;2023-12-29T01:56:56;1.20;99.90
19000;DHT22;9633;50.980;13.850;2023-12-29T01:58:29;1.30;99.90
19000;DHT22;9633;50.980;13.850;2023-12-29T02:00:03;1.30;99.90
19000;DHT22;9633;50.980;13.850;2023-12-29T02:01:43;1.30;99.90
19000;DHT22;9633;50.980;13.850;2023-12-29T02:03:17;1.20;99.90
19000;DHT22;9633;50.980;13.850;2023-12-29T02:04:51;1.30;99.90
19000;DHT22;9633;50.980;13.850;2023-12-29T02:06:25;1.40;99.90
19000;DHT22;9633;50.980;13.850;2023-12-29T02:07:58;1.30;99.90
19000;DHT22;9633;50.980;13.850;2023-12-29T02:09:36;1.30;99.90
19000;DHT22;9633;50.980;13.850;2023-12-29T02:11:09;1.20;99.90
19000;DHT22;9633;50.980;13.850;2023-12-29T02:12:43;1.10;99.90
19000;DHT22;9633;50.980;13.850;2023-12-29T02:14:18;1.10;99.90
19000;DHT22;9633;50.980;13.850;2023-12-29T02:15:52;1.10;99.90
19000;DHT22;9633;50.980;13.850;2023-12-29T02:17:31;1.00;99.90
19000;DHT22;9633;50.980;13.850;2023-12-29T02:19:19;1.00;99.90
19000;DHT22;9633;50.980;13.850;2023-12-29T02:20:57;0.90;99.90
19000;DHT22;9633;50.980;13.850;2023-12-29T02:22:30;0.90;99.90
19000;DHT22;9633;50.980;13.850;2023-12-29T02:24:04;0.80;99.90
19000;DHT22;9633;50.980;13.850;2023-12-29T02:25:37;0.80;99.90
19000;DHT22;9633;50.980;13.850;2023-12-29T02:27:21;0.80;99.90
19000;DHT22;9633;50.980;13.850;2023-12-29T02:29:01;0.70;99.90
19000;DHT22;9633;50.980;13.850;2023-12-29T02:30:41;0.70;99.90
19000;DHT22;9633;50.980;13.850;2023-12-29T02:32:18;0.70;99.90
19000;DHT22;9633;50.980;13.850;2023-12-29T02:33:51;0.80;99.90
19000;DHT22;9633;50.980;13.850;2023-12-29T02:35:28;0.80;99.90
19000;DHT22;9633;50.980;13.850;2023-12-29T02:37:01;0.80;99.90
19000;DHT22;9633;50.980;13.850;2023-12-29T02:38:34;0.80;99.90
19000;DHT22;9633;50.980;13.850;2023-12-29T02:40:08;0.70;99.90
19000;DHT22;9633;50.980;13.850;2023-12-29T02:41:43;0.80;99.90
19000;DHT22;9633;50.980;13.850;2023-12-29T02:43:16;0.90;99.90
19000;DHT22;9633;50.980;13.850;2023-12-29T02:44:48;0.90;99.90
19000;DHT22;9633;50.980;13.850;2023-12-29T02:46:21;0.90;99.90
19000;DHT22;9633;50.980;13.850;2023-12-29T02:47:56;1.10;99.90
19000;DHT22;9633;50.980;13.850;2023-12-29T02:49:30;1.20;99.90
19000;DHT22;9633;50.980;13.850;2023-12-29T02:51:02;1.20;99.90
19000;DHT22;9633;50.980;13.850;2023-12-29T02:52:36;1.30;99.90
19000;DHT22;9633;50.980;13.850;2023-12-29T02:54:08;1.20;99.90
19000;DHT22;9633;50.980;13.850;2023-12-29T02:55:41;1.20;99.90
19000;DHT22;9633;50.980;13.850;2023-12-29T02:57:15;1.20;99.90
19000;DHT22;9633;50.980;13.850;2023-12-29T02:58:48;1.10;99.90
19000;DHT22;9633;50.980;13.850;2023-12-29T03:00:20;1.10;99.90
19000;DHT22;9633;50.980;13.850;2023-12-29T03:01:54;1.10;99.90
19000;DHT22;9633;50.980;13.850;2023-12-29T03:03:26;1.10;99.90
19000;DHT22;9633;50.980;13.850;2023-12-29T03:04:59;1.00;99.90
19000;DHT22;9633;50.980;13.850;2023-12-29T03:06:32;1.00;99.90
19000;DHT22;9633;50.980;13.850;2023-12-29T03:08:05;1.00;99.90
19000;DHT22;9633;50.980;13.850;2023-12-29T03:09:38;1.00;99.90
19000;DHT22;9633;50.980;13.850;2023-12-29T03:11:11;1.00;99.90
19000;DHT22;9633;50.980;13.850;2023-12-29T03:12:45;1.00;99.90
19000;DHT22;9633;50.980;13.850;2023-12-29T03:14:17;0.90;99.90
19000;DHT22;9633;50.980;13.850;2023-12-29T03:15:51;1.00;99.90
19000;DHT22;9633;50.980;13.850;2023-12-29T03:17:23;1.00;99.90
19000;DHT22;9633;50.980;13.850;2023-12-29T03:18:56;0.90;99.90
19000;DHT22;9633;50.980;13.850;2023-12-29T03:20:28;0.90;99.90
19000;DHT22;9633;50.980;13.850;2023-12-29T03:22:01;0.90;99.90
19000;DHT22;9633;50.980;13.850;2023-12-29T03:23:35;0.90;99.90
19000;DHT22;9633;50.980;13.850;2023-12-29T03:25:08;1.00;99.90
19000;DHT22;9633;50.980;13.850;2023-12-29T03:26:40;1.00;99.90
19000;DHT22;9633;50.980;13.850;2023-12-29T03:28:15;0.90;99.90
19000;DHT22;9633;50.980;13.850;2023-12-29T03:29:48;0.90;99.90
19000;DHT22;9633;50.980;13.850;2023-12-29T03:31:21;0.80;99.90
19000;DHT22;9633;50.980;13.850;2023-12-29T03:32:53;0.80;99.90
19000;DHT22;9633;50.980;13.850;2023-12-29T03:34:27;0.80;99.90
19000;DHT22;9633;50.980;13.850;2023-12-29T03:35:59;0.80;99.90
19000;DHT22;9633;50.980;13.850;2023-12-29T03:37:32;0.80;99.90
19000;DHT22;9633;50.980;13.850;2023-12-29T03:39:05;0.70;99.90
19000;DHT22;9633;50.980;13.850;2023-12-29T03:40:39;0.70;99.90
19000;DHT22;9633;50.980;13.850;2023-12-29T03:42:11;0.70;99.90
19000;DHT22;9633;50.980;13.850;2023-12-29T03:43:46;0.60;99.90
19000;DHT22;9633;50.980;13.850;2023-12-29T03:45:20;0.50;99.90
19000;DHT22;9633;50.980;13.850;2023-12-29T03:46:53;0.50;99.90
19000;DHT22;9633;50.980;13.850;2023-12-29T03:48:27;0.50;99.90
19000;DHT22;9633;50.980;13.850;2023-12-29T03:49:59;0.50;99.90
19000;DHT22;9633;50.980;13.850;2023-12-29T03:51:33;0.50;99.90
19000;DHT22;9633;50.980;13.850;2023-12-29T03:53:05;0.50;99.90
19000;DHT22;9633;50.980;13.850;2023-12-29T03:54:38;0.50;99.90
19000;DHT22;9633;50.980;13.850;2023-12-29T03:56:14;0.50;99.90
19000;DHT22;9633;50.980;13.850;2023-12-29T03:57:47;0.40;99.90
19000;DHT22;9633;50.980;13.850;2023-12-29T03:59:21;0.40;99.90
19000;DHT22;9633;50.980;13.850;2023-12-29T04:00:55;0.40;99.90
19000;DHT22;9633;50.980;13.850;2023-12-29T04:02:28;0.50;99.90
19000;DHT22;9633;50.980;13.850;2023-12-29T04:04:01;0.50;99.90
19000;DHT22;9633;50.980;13.850;2023-12-29T04:05:33;0.60;99.90
19000;DHT22;9633;50.980;13.850;2023-12-29T04:07:07;0.60;99.90
19000;DHT22;9633;50.980;13.850;2023-12-29T04:08:40;0.80;99.90
19000;DHT22;9633;50.980;13.850;2023-12-29T04:10:12;1.00;99.90
19000;DHT22;9633;50.980;13.850;2023-12-29T04:11:45;1.10;99.90
19000;DHT22;9633;50.980;13.850;2023-12-29T04:13:18;1.90;99.90
19000;DHT22;9633;50.980;13.850;2023-12-29T04:14:53;2.00;99.90
19000;DHT22;9633;50.980;13.850;2023-12-29T04:16:25;2.20;99.90
19000;DHT22;9633;50.980;13.850;2023-12-29T04:17:59;2.40;99.90
19000;DHT22;9633;50.980;13.850;2023-12-29T04:19:32;2.50;99.90
19000;DHT22;9633;50.980;13.850;2023-12-29T04:21:05;2.60;99.90
19000;DHT22;9633;50.980;13.850;2023-12-29T04:22:37;2.80;99.90
19000;DHT22;9633;50.980;13.850;2023-12-29T04:24:11;2.90;99.90
19000;DHT22;9633;50.980;13.850;2023-12-29T04:25:44;3.00;99.90
19000;DHT22;9633;50.980;13.850;2023-12-29T04:27:18;3.00;99.90
19000;DHT22;9633;50.980;13.850;2023-12-29T04:28:50;2.90;99.90
19000;DHT22;9633;50.980;13.850;2023-12-29T04:30:24;2.90;99.90
19000;DHT22;9633;50.980;13.850;2023-12-29T04:31:59;3.00;99.90
19000;DHT22;9633;50.980;13.850;2023-12-29T04:33:34;3.00;99.90
19000;DHT22;9633;50.980;13.850;2023-12-29T04:35:08;3.10;99.90
19000;DHT22;9633;50.980;13.850;2023-12-29T04:36:44;3.40;99.90
19000;DHT22;9633;50.980;13.850;2023-12-29T04:38:18;4.10;99.90
19000;DHT22;9633;50.980;13.850;2023-12-29T04:39:51;4.60;99.90
19000;DHT22;9633;50.980;13.850;2023-12-29T04:41:25;5.00;99.90
19000;DHT22;9633;50.980;13.850;2023-12-29T04:42:57;5.10;99.90
19000;DHT22;9633;50.980;13.850;2023-12-29T04:44:30;5.10;99.90
19000;DHT22;9633;50.980;13.850;2023-12-29T04:46:04;5.50;99.90
19000;DHT22;9633;50.980;13.850;2023-12-29T04:47:37;5.50;99.90
19000;DHT22;9633;50.980;13.850;2023-12-29T04:49:09;5.60;99.90
19000;DHT22;9633;50.980;13.850;2023-12-29T04:50:42;6.00;99.90
19000;DHT22;9633;50.980;13.850;2023-12-29T04:52:16;6.70;99.90
19000;DHT22;9633;50.980;13.850;2023-12-29T04:53:48;6.90;99.90
19000;DHT22;9633;50.980;13.850;2023-12-29T04:55:21;7.20;99.90
19000;DHT22;9633;50.980;13.850;2023-12-29T04:56:53;7.50;99.90
19000;DHT22;9633;50.980;13.850;2023-12-29T04:58:26;7.50;99.90
19000;DHT22;9633;50.980;13.850;2023-12-29T04:59:58;7.70;99.90
19000;DHT22;9633;50.980;13.850;2023-12-29T05:01:33;7.80;99.90
19000;DHT22;9633;50.980;13.850;2023-12-29T05:03:06;7.90;94.80
19000;DHT22;9633;50.980;13.850;2023-12-29T05:04:39;8.00;88.50
19000;DHT22;9633;50.980;13.850;2023-12-29T05:06:11;8.10;82.10
19000;DHT22;9633;50.980;13.850;2023-12-29T05:07:44;8.00;81.00
19000;DHT22;9633;50.980;13.850;2023-12-29T05:09:17;8.20;70.50
19000;DHT22;9633;50.980;13.850;2023-12-29T05:10:50;8.30;66.10
19000;DHT22;9633;50.980;13.850;2023-12-29T05:12:22;8.30;61.80
19000;DHT22;9633;50.980;13.850;2023-12-29T05:13:55;8.20;61.80
19000;DHT22;9633;50.980;13.850;2023-12-29T05:15:27;8.30;59.00
19000;DHT22;9633;50.980;13.850;2023-12-29T05:17:02;8.30;56.40
19000;DHT22;9633;50.980;13.850;2023-12-29T05:18:35;8.30;54.70
19000;DHT22;9633;50.980;13.850;2023-12-29T05:20:09;8.40;54.40
19000;DHT22;9633;50.980;13.850;2023-12-29T05:21:43;8.50;49.40
19000;DHT22;9633;50.980;13.850;2023-12-29T05:23:15;8.60;44.50
19000;DHT22;9633;50.980;13.850;2023-12-29T05:24:48;8.70;38.00
19000;DHT22;9633;50.980;13.850;2023-12-29T05:26:21;8.70;43.20
19000;DHT22;9633;50.980;13.850;2023-12-29T05:27:54;8.70;41.80
19000;DHT22;9633;50.980;13.850;2023-12-29T05:29:26;8.80;39.20
19000;DHT22;9633;50.980;13.850;2023-12-29T05:30:59;8.90;36.70
19000;DHT22;9633;50.980;13.850;2023-12-29T05:32:36;8.80;37.90
19000;DHT22;9633;50.980;13.850;2023-12-29T05:34:10;8.80;40.20
19000;DHT22;9633;50.980;13.850;2023-12-29T05:35:42;8.80;41.30
19000;DHT22;9633;50.980;13.850;2023-12-29T05:37:16;8.80;43.90
19000;DHT22;9633;50.980;13.850;2023-12-29T05:38:48;8.70;49.00
19000;DHT22;9633;50.980;13.850;2023-12-29T05:40:21;8.70;48.60
19000;DHT22;9633;50.980;13.850;2023-12-29T05:41:54;9.00;37.10
19000;DHT22;9633;50.980;13.850;2023-12-29T05:43:28;9.00;35.30
19000;DHT22;9633;50.980;13.850;2023-12-29T05:45:01;9.10;32.70
19000;DHT22;9633;50.980;13.850;2023-12-29T05:46:34;8.90;36.40
19000;DHT22;9633;50.980;13.850;2023-12-29T05:48:08;8.90;37.80
19000;DHT22;9633;50.980;13.850;2023-12-29T05:49:43;8.90;35.80
19000;DHT22;9633;50.980;13.850;2023-12-29T05:51:17;8.80;40.90
19000;DHT22;9633;50.980;13.850;2023-12-29T05:52:49;8.80;38.00
19000;DHT22;9633;50.980;13.850;2023-12-29T05:54:23;8.70;39.70
19000;DHT22;9633;50.980;13.850;2023-12-29T05:55:57;8.60;43.10
19000;DHT22;9633;50.980;13.850;2023-12-29T05:57:29;8.60;42.40
19000;DHT22;9633;50.980;13.850;2023-12-29T05:59:02;8.60;41.80
19000;DHT22;9633;50.980;13.850;2023-12-29T06:00:36;8.70;32.40
19000;DHT22;9633;50.980;13.850;2023-12-29T06:02:09;8.80;26.70
19000;DHT22;9633;50.980;13.850;2023-12-29T06:03:43;8.70;30.50
19000;DHT22;9633;50.980;13.850;2023-12-29T06:05:16;8.70;30.90
19000;DHT22;9633;50.980;13.850;2023-12-29T06:06:49;8.70;26.80
19000;DHT22;9633;50.980;13.850;2023-12-29T06:08:22;8.80;25.30
19000;DHT22;9633;50.980;13.850;2023-12-29T06:09:55;8.90;23.70
19000;DHT22;9633;50.980;13.850;2023-12-29T06:11:29;9.00;16.50
19000;DHT22;9633;50.980;13.850;2023-12-29T06:13:01;9.00;17.60
19000;DHT22;9633;50.980;13.850;2023-12-29T06:14:36;9.20;6.40
19000;DHT22;9633;50.980;13.850;2023-12-29T06:16:09;9.20;5.00
19000;DHT22;9633;50.980;13.850;2023-12-29T06:17:42;9.20;1.30
19000;DHT22;9633;50.980;13.850;2023-12-29T06:19:17;9.20;1.20
19000;DHT22;9633;50.980;13.850;2023-12-29T06:20:50;9.20;1.00
19000;DHT22;9633;50.980;13.850;2023-12-29T06:22:26;9.00;1.70
19000;DHT22;9633;50.980;13.850;2023-12-29T06:23:59;9.10;1.00
19000;DHT22;9633;50.980;13.850;2023-12-29T06:25:32;9.20;1.00
19000;DHT22;9633;50.980;13.850;2023-12-29T06:27:08;9.30;1.00
19000;DHT22;9633;50.980;13.850;2023-12-29T06:28:41;9.30;1.00
19000;DHT22;9633;50.980;13.850;2023-12-29T06:30:14;9.40;1.00
19000;DHT22;9633;50.980;13.850;2023-12-29T06:31:47;9.40;1.00
19000;DHT22;9633;50.980;13.850;2023-12-29T06:33:20;9.30;1.00
19000;DHT22;9633;50.980;13.850;2023-12-29T06:34:55;9.20;1.00
19000;DHT22;9633;50.980;13.850;2023-12-29T06:36:28;9.30;1.00
19000;DHT22;9633;50.980;13.850;2023-12-29T06:38:01;9.20;1.00
19000;DHT22;9633;50.980;13.850;2023-12-29T06:39:33;9.30;1.00
19000;DHT22;9633;50.980;13.850;2023-12-29T06:41:07;9.30;1.00
19000;DHT22;9633;50.980;13.850;2023-12-29T06:42:39;9.30;1.00
19000;DHT22;9633;50.980;13.850;2023-12-29T06:44:13;9.20;1.00
19000;DHT22;9633;50.980;13.850;2023-12-29T06:45:46;9.10;1.00
19000;DHT22;9633;50.980;13.850;2023-12-29T06:47:18;9.10;1.00
19000;DHT22;9633;50.980;13.850;2023-12-29T06:48:51;9.00;1.00
19000;DHT22;9633;50.980;13.850;2023-12-29T06:50:25;9.00;1.00
19000;DHT22;9633;50.980;13.850;2023-12-29T06:51:59;9.00;1.00
19000;DHT22;9633;50.980;13.850;2023-12-29T06:53:31;8.90;1.00
19000;DHT22;9633;50.980;13.850;2023-12-29T06:55:06;9.10;1.00
19000;DHT22;9633;50.980;13.850;2023-12-29T06:56:38;9.10;1.00
19000;DHT22;9633;50.980;13.850;2023-12-29T06:58:12;9.10;1.00
19000;DHT22;9633;50.980;13.850;2023-12-29T06:59:44;9.00;1.00
19000;DHT22;9633;50.980;13.850;2023-12-29T07:01:17;8.90;1.00
19000;DHT22;9633;50.980;13.850;2023-12-29T07:02:50;8.90;1.00
19000;DHT22;9633;50.980;13.850;2023-12-29T07:04:23;8.80;1.00
19000;DHT22;9633;50.980;13.850;2023-12-29T07:05:57;8.80;1.00
19000;DHT22;9633;50.980;13.850;2023-12-29T07:07:30;8.90;1.00
19000;DHT22;9633;50.980;13.850;2023-12-29T07:09:02;9.00;1.00
19000;DHT22;9633;50.980;13.850;2023-12-29T07:10:36;9.10;1.00
19000;DHT22;9633;50.980;13.850;2023-12-29T07:12:08;9.10;1.00
19000;DHT22;9633;50.980;13.850;2023-12-29T07:13:41;9.10;1.00
19000;DHT22;9633;50.980;13.850;2023-12-29T07:15:14;9.00;1.00
19000;DHT22;9633;50.980;13.850;2023-12-29T07:16:48;9.10;1.00
19000;DHT22;9633;50.980;13.850;2023-12-29T07:18:20;9.10;1.00
19000;DHT22;9633;50.980;13.850;2023-12-29T07:19:53;9.00;1.00
19000;DHT22;9633;50.980;13.850;2023-12-29T07:21:27;8.80;1.00
19000;DHT22;9633;50.980;13.850;2023-12-29T07:23:00;8.70;1.00
19000;DHT22;9633;50.980;13.850;2023-12-29T07:24:33;8.50;1.00
19000;DHT22;9633;50.980;13.850;2023-12-29T07:26:07;8.60;1.00
19000;DHT22;9633;50.980;13.850;2023-12-29T07:27:40;8.60;1.00
19000;DHT22;9633;50.980;13.850;2023-12-29T07:29:13;8.60;1.00
19000;DHT22;9633;50.980;13.850;2023-12-29T07:30:45;8.50;1.00
19000;DHT22;9633;50.980;13.850;2023-12-29T07:32:18;8.60;1.00
19000;DHT22;9633;50.980;13.850;2023-12-29T07:33:51;8.60;1.00
19000;DHT22;9633;50.980;13.850;2023-12-29T07:35:24;8.70;1.00
19000;DHT22;9633;50.980;13.850;2023-12-29T07:36:58;8.80;1.00
19000;DHT22;9633;50.980;13.850;2023-12-29T07:38:32;8.70;1.00
19000;DHT22;9633;50.980;13.850;2023-12-29T07:40:06;8.60;1.00
19000;DHT22;9633;50.980;13.850;2023-12-29T07:41:40;8.40;1.00
19000;DHT22;9633;50.980;13.850;2023-12-29T07:43:14;8.30;5.60
19000;DHT22;9633;50.980;13.850;2023-12-29T07:44:47;8.30;10.80
19000;DHT22;9633;50.980;13.850;2023-12-29T07:46:26;8.30;10.70
19000;DHT22;9633;50.980;13.850;2023-12-29T07:47:59;8.30;14.90
19000;DHT22;9633;50.980;13.850;2023-12-29T07:49:32;8.30;16.30
19000;DHT22;9633;50.980;13.850;2023-12-29T07:51:06;8.20;18.50
19000;DHT22;9633;50.980;13.850;2023-12-29T07:52:41;8.10;22.80
19000;DHT22;9633;50.980;13.850;2023-12-29T07:54:15;7.90;28.50
19000;DHT22;9633;50.980;13.850;2023-12-29T07:55:48;7.80;34.80
19000;DHT22;9633;50.980;13.850;2023-12-29T07:57:22;7.80;39.50
19000;DHT22;9633;50.980;13.850;2023-12-29T07:58:55;7.70;45.10
19000;DHT22;9633;50.980;13.850;2023-12-29T08:00:28;7.70;44.50
19000;DHT22;9633;50.980;13.850;2023-12-29T08:02:01;7.40;55.90
19000;DHT22;9633;50.980;13.850;2023-12-29T08:03:34;7.50;61.20
19000;DHT22;9633;50.980;13.850;2023-12-29T08:05:06;7.60;62.20
19000;DHT22;9633;50.980;13.850;2023-12-29T08:06:40;7.70;58.00
19000;DHT22;9633;50.980;13.850;2023-12-29T08:08:14;7.60;60.70
19000;DHT22;9633;50.980;13.850;2023-12-29T08:09:47;7.70;64.60
19000;DHT22;9633;50.980;13.850;2023-12-29T08:11:19;7.80;54.90
19000;DHT22;9633;50.980;13.850;2023-12-29T08:12:52;7.90;52.90
19000;DHT22;9633;50.980;13.850;2023-12-29T08:14:26;8.10;45.30
19000;DHT22;9633;50.980;13.850;2023-12-29T08:16:00;8.20;42.20
19000;DHT22;9633;50.980;13.850;2023-12-29T08:17:32;8.50;21.70
19000;DHT22;9633;50.980;13.850;2023-12-29T08:19:05;9.00;6.50
19000;DHT22;9633;50.980;13.850;2023-12-29T08:20:38;9.20;3.20
19000;DHT22;9633;50.980;13.850;2023-12-29T08:22:12;9.30;1.00
19000;DHT22;9633;50.980;13.850;2023-12-29T08:23:46;9.40;1.00
19000;DHT22;9633;50.980;13.850;2023-12-29T08:25:19;9.60;1.00
19000;DHT22;9633;50.980;13.850;2023-12-29T08:26:52;9.90;1.00
19000;DHT22;9633;50.980;13.850;2023-12-29T08:28:25;10.00;1.00
19000;DHT22;9633;50.980;13.850;2023-12-29T08:29:58;10.20;1.00
19000;DHT22;9633;50.980;13.850;2023-12-29T08:31:31;10.40;1.00
19000;DHT22;9633;50.980;13.850;2023-12-29T08:33:04;10.50;1.00
19000;DHT22;9633;50.980;13.850;2023-12-29T08:34:37;10.70;1.00
19000;DHT22;9633;50.980;13.850;2023-12-29T08:36:11;10.80;1.00
19000;DHT22;9633;50.980;13.850;2023-12-29T08:37:45;10.90;1.00
19000;DHT22;9633;50.980;13.850;2023-12-29T08:39:19;11.00;1.00
19000;DHT22;9633;50.980;13.850;2023-12-29T08:40:51;11.00;1.00
19000;DHT22;9633;50.980;13.850;2023-12-29T08:42:25;10.80;1.00
19000;DHT22;9633;50.980;13.850;2023-12-29T08:43:58;10.70;1.00
19000;DHT22;9633;50.980;13.850;2023-12-29T08:45:31;10.50;1.00
19000;DHT22;9633;50.980;13.850;2023-12-29T08:47:04;10.40;1.00
19000;DHT22;9633;50.980;13.850;2023-12-29T08:48:39;10.30;1.00
19000;DHT22;9633;50.980;13.850;2023-12-29T08:50:12;10.30;1.00
19000;DHT22;9633;50.980;13.850;2023-12-29T08:51:46;10.30;1.00
19000;DHT22;9633;50.980;13.850;2023-12-29T08:53:18;10.40;1.00
19000;DHT22;9633;50.980;13.850;2023-12-29T08:54:53;10.40;1.00
19000;DHT22;9633;50.980;13.850;2023-12-29T08:56:25;10.40;1.00
19000;DHT22;9633;50.980;13.850;2023-12-29T08:58:00;10.40;1.00
19000;DHT22;9633;50.980;13.850;2023-12-29T08:59:33;10.40;1.00
19000;DHT22;9633;50.980;13.850;2023-12-29T09:01:07;10.40;1.00
19000;DHT22;9633;50.980;13.850;2023-12-29T09:02:39;10.40;1.00
19000;DHT22;9633;50.980;13.850;2023-12-29T09:04:12;10.50;1.00
19000;DHT22;9633;50.980;13.850;2023-12-29T09:05:45;10.60;1.00
19000;DHT22;9633;50.980;13.850;2023-12-29T09:07:18;10.60;1.00
19000;DHT22;9633;50.980;13.850;2023-12-29T09:08:50;10.60;1.00
19000;DHT22;9633;50.980;13.850;2023-12-29T09:10:25;10.70;1.00
19000;DHT22;9633;50.980;13.850;2023-12-29T09:11:57;10.80;1.00
19000;DHT22;9633;50.980;13.850;2023-12-29T09:13:31;10.90;1.00
19000;DHT22;9633;50.980;13.850;2023-12-29T09:15:05;10.90;1.00
19000;DHT22;9633;50.980;13.850;2023-12-29T09:16:37;11.00;1.00
19000;DHT22;9633;50.980;13.850;2023-12-29T09:18:15;11.20;1.00
19000;DHT22;9633;50.980;13.850;2023-12-29T09:19:47;11.10;1.00
19000;DHT22;9633;50.980;13.850;2023-12-29T09:21:31;11.30;1.00
19000;DHT22;9633;50.980;13.850;2023-12-29T09:23:03;11.30;1.00
19000;DHT22;9633;50.980;13.850;2023-12-29T09:24:36;11.30;1.00
19000;DHT22;9633;50.980;13.850;2023-12-29T09:26:10;11.20;1.00
19000;DHT22;9633;50.980;13.850;2023-12-29T09:27:43;11.20;1.00
19000;DHT22;9633;50.980;13.850;2023-12-29T09:29:16;11.10;1.00
19000;DHT22;9633;50.980;13.850;2023-12-29T09:30:50;11.10;1.00
19000;DHT22;9633;50.980;13.850;2023-12-29T09:32:22;11.00;1.00
19000;DHT22;9633;50.980;13.850;2023-12-29T09:33:55;10.90;1.00
19000;DHT22;9633;50.980;13.850;2023-12-29T09:35:28;10.90;1.00
19000;DHT22;9633;50.980;13.850;2023-12-29T09:37:02;10.90;1.00
19000;DHT22;9633;50.980;13.850;2023-12-29T09:38:35;10.90;1.00
19000;DHT22;9633;50.980;13.850;2023-12-29T09:40:10;10.90;1.00
19000;DHT22;9633;50.980;13.850;2023-12-29T09:41:46;10.90;1.00
19000;DHT22;9633;50.980;13.850;2023-12-29T09:43:20;10.80;1.00
19000;DHT22;9633;50.980;13.850;2023-12-29T09:44:52;10.80;1.00
19000;DHT22;9633;50.980;13.850;2023-12-29T09:46:27;10.90;1.00
19000;DHT22;9633;50.980;13.850;2023-12-29T09:48:03;10.90;1.00
19000;DHT22;9633;50.980;13.850;2023-12-29T09:49:40;10.90;1.00
19000;DHT22;9633;50.980;13.850;2023-12-29T09:51:15;11.00;1.00
19000;DHT22;9633;50.980;13.850;2023-12-29T09:52:49;11.00;1.00
19000;DHT22;9633;50.980;13.850;2023-12-29T09:54:21;11.10;1.00
19000;DHT22;9633;50.980;13.850;2023-12-29T09:55:57;11.10;1.00
19000;DHT22;9633;50.980;13.850;2023-12-29T09:57:33;11.00;1.00
19000;DHT22;9633;50.980;13.850;2023-12-29T09:59:06;11.00;1.00
19000;DHT22;9633;50.980;13.850;2023-12-29T10:00:42;11.00;1.00
19000;DHT22;9633;50.980;13.850;2023-12-29T10:02:15;11.00;1.00
19000;DHT22;9633;50.980;13.850;2023-12-29T10:03:49;11.10;1.00